createdAt,value
2022-10-12T14:25:20.259Z,3.80
2022-10-12T14:27:56.839Z,3.97
2022-10-12T14:30:50.660Z,3.77
2022-10-12T14:33:17.277Z,4.00
2022-10-12T14:35:47.975Z,3.97
2022-10-12T14:38:39.941Z,4.40
2022-10-12T14:41:28.650Z,3.67
2022-10-12T14:44:12.209Z,4.03
2022-10-12T14:46:42.846Z,3.40
2022-10-12T14:49:20.111Z,3.90
2022-10-12T14:51:48.303Z,3.77
2022-10-12T14:54:15.270Z,3.73
2022-10-12T14:56:42.700Z,3.80
2022-10-12T14:59:09.764Z,3.87
2022-10-12T15:01:40.888Z,3.83
2022-10-12T15:04:12.723Z,3.70
2022-10-12T15:06:39.624Z,4.00
2022-10-12T15:09:06.200Z,3.80
2022-10-12T15:11:32.877Z,3.33
2022-10-12T15:13:59.470Z,3.77
2022-10-12T15:16:28.034Z,3.50
2022-10-12T15:18:55.269Z,3.67
2022-10-12T15:21:21.955Z,3.63
2022-10-12T15:23:48.645Z,4.03
2022-10-12T15:26:18.347Z,3.40
2022-10-12T15:28:45.440Z,3.57
2022-10-12T15:31:18.650Z,3.70
2022-10-12T15:33:46.189Z,3.43
2022-10-12T15:36:12.812Z,3.73
2022-10-12T15:38:39.929Z,3.97
2022-10-12T15:41:18.736Z,3.83
2022-10-12T15:43:45.388Z,3.33
2022-10-12T15:46:12.243Z,3.70
2022-10-12T15:48:41.259Z,3.90
2022-10-12T15:51:17.225Z,4.13
2022-10-12T15:53:46.251Z,3.90
2022-10-12T15:56:14.941Z,3.90
2022-10-12T15:58:41.773Z,3.80
2022-10-12T16:01:19.823Z,3.50
2022-10-12T16:03:47.826Z,3.63
2022-10-12T16:06:14.787Z,4.33
2022-10-12T16:08:42.400Z,3.87
2022-10-12T16:11:12.567Z,4.13
2022-10-12T16:13:45.401Z,3.90
2022-10-12T16:16:19.257Z,4.37
2022-10-12T16:18:46.007Z,4.40
2022-10-12T16:21:13.076Z,4.77
2022-10-12T16:23:40.740Z,3.77
2022-10-12T16:26:11.356Z,3.93
2022-10-12T16:28:38.312Z,4.00
2022-10-12T16:31:15.335Z,4.57
2022-10-12T16:33:42.438Z,4.30
2022-10-12T16:36:15.011Z,4.40
2022-10-12T16:38:42.981Z,5.43
2022-10-12T16:41:15.258Z,5.13
2022-10-12T16:43:42.736Z,5.20
2022-10-12T16:46:09.816Z,4.83
2022-10-12T16:48:36.991Z,4.80
2022-10-12T16:51:13.069Z,4.57
2022-10-12T16:53:42.157Z,4.17
2022-10-12T16:56:08.739Z,3.87
2022-10-12T16:58:37.305Z,4.47
2022-10-12T17:01:13.764Z,5.80
2022-10-12T17:03:40.764Z,5.17
2022-10-12T17:06:07.949Z,4.50
2022-10-12T17:08:36.078Z,4.30
2022-10-12T17:11:11.057Z,5.07
2022-10-12T17:13:39.033Z,5.20
2022-10-12T17:16:26.172Z,5.17
2022-10-12T17:18:58.956Z,5.93
2022-10-12T17:21:27.809Z,5.67
2022-10-12T17:23:58.901Z,5.90
2022-10-12T17:26:26.111Z,6.40
2022-10-12T17:28:54.070Z,4.90
2022-10-12T17:31:21.617Z,5.13
2022-10-12T17:33:49.083Z,6.00
2022-10-12T17:36:16.599Z,5.50
2022-10-12T17:38:44.338Z,6.10
2022-10-12T17:41:10.924Z,6.10
2022-10-12T17:43:38.386Z,6.37
2022-10-12T17:46:05.879Z,6.23
2022-10-12T17:48:32.914Z,6.50
2022-10-12T17:51:14.650Z,5.60
2022-10-12T17:53:41.931Z,5.87
2022-10-12T17:56:12.632Z,6.60
2022-10-12T17:58:39.380Z,5.90
2022-10-12T18:01:09.520Z,5.97
2022-10-12T18:03:36.613Z,6.50
2022-10-12T18:06:08.589Z,6.10
2022-10-12T18:08:36.320Z,6.37
2022-10-12T18:11:04.745Z,6.63
2022-10-12T18:13:31.970Z,6.50
2022-10-12T18:15:59.168Z,5.70
2022-10-12T18:18:27.300Z,6.93
2022-10-12T18:20:54.232Z,6.67
2022-10-12T18:23:20.921Z,6.30
2022-10-12T18:25:47.597Z,7.67
2022-10-12T18:28:14.782Z,6.40
2022-10-12T18:30:47.862Z,6.47
2022-10-12T18:33:16.304Z,6.60
2022-10-12T18:35:43.400Z,6.07
2022-10-12T18:38:10.260Z,6.60
2022-10-12T18:40:41.897Z,7.23
2022-10-12T18:43:09.534Z,7.03
2022-10-12T18:45:42.245Z,7.13
2022-10-12T18:48:09.089Z,7.87
2022-10-12T18:50:36.562Z,8.30
2022-10-12T18:53:04.861Z,7.93
2022-10-12T18:55:32.174Z,7.03
2022-10-12T18:58:01.409Z,7.00
2022-10-12T19:00:28.104Z,7.53
2022-10-12T19:02:54.755Z,7.30
2022-10-12T19:05:21.536Z,8.97
2022-10-12T19:07:48.235Z,8.93
2022-10-12T19:10:15.090Z,7.90
2022-10-12T19:12:45.646Z,8.90
2022-10-12T19:15:13.305Z,8.37
2022-10-12T19:17:39.859Z,8.37
2022-10-12T19:20:07.158Z,8.30
2022-10-12T19:22:33.758Z,6.63
2022-10-12T19:25:00.346Z,7.73
2022-10-12T19:27:27.015Z,7.50
2022-10-12T19:29:53.898Z,7.93
2022-10-12T19:32:20.727Z,7.77
2022-10-12T19:34:50.902Z,7.00
2022-10-12T19:37:18.231Z,7.50
2022-10-12T19:39:46.976Z,6.77
2022-10-12T19:42:13.563Z,7.13
2022-10-12T19:44:40.167Z,7.67
2022-10-12T19:47:06.848Z,8.90
2022-10-12T19:49:36.872Z,8.17
2022-10-12T19:52:04.625Z,9.07
2022-10-12T19:54:34.170Z,8.23
2022-10-12T19:57:02.742Z,8.87
2022-10-12T19:59:31.404Z,8.60
2022-10-12T20:01:58.693Z,8.40
2022-10-12T20:04:25.267Z,8.07
2022-10-12T20:06:51.892Z,8.33
2022-10-12T20:09:18.425Z,8.10
2022-10-12T20:11:45.044Z,8.27
2022-10-12T20:14:11.713Z,8.20
2022-10-12T20:16:38.389Z,8.63
2022-10-12T20:19:06.504Z,7.87
2022-10-12T20:21:36.248Z,7.70
2022-10-12T20:24:02.882Z,8.53
2022-10-12T20:26:29.721Z,8.10
2022-10-12T20:28:56.386Z,8.30
2022-10-12T20:31:24.616Z,8.27
2022-10-12T20:33:52.780Z,8.53
2022-10-12T20:36:25.421Z,7.87
2022-10-12T20:38:52.183Z,8.00
2022-10-12T20:41:18.888Z,7.67
2022-10-12T20:43:46.258Z,8.27
2022-10-12T20:46:15.418Z,8.03
2022-10-12T20:48:44.668Z,8.60
2022-10-12T20:51:23.179Z,7.70
2022-10-12T20:53:51.901Z,8.17
2022-10-12T20:56:18.500Z,8.07
2022-10-12T20:58:45.420Z,8.57
2022-10-12T21:01:16.463Z,8.40
2022-10-12T21:03:43.281Z,8.57
2022-10-12T21:06:13.357Z,7.80
2022-10-12T21:08:40.764Z,7.90
2022-10-12T21:11:09.387Z,8.73
2022-10-12T21:13:41.863Z,8.27
2022-10-12T21:16:09.736Z,8.27
2022-10-12T21:18:38.311Z,7.90
2022-10-12T21:21:16.038Z,8.03
2022-10-12T21:23:45.003Z,8.80
2022-10-12T21:26:14.872Z,9.20
2022-10-12T21:28:41.759Z,8.53
2022-10-12T21:31:08.824Z,8.97
2022-10-12T21:33:36.467Z,8.33
2022-10-12T21:36:13.258Z,8.70
2022-10-12T21:38:41.027Z,8.00
2022-10-12T21:41:08.685Z,7.90
2022-10-12T21:43:36.936Z,8.03
2022-10-12T21:46:08.409Z,9.03
2022-10-12T21:48:35.355Z,8.80
2022-10-12T21:51:03.815Z,8.53
2022-10-12T21:53:31.709Z,9.20
2022-10-12T21:55:58.277Z,8.80
2022-10-12T21:58:25.768Z,9.17
2022-10-12T22:00:53.775Z,8.17
2022-10-12T22:03:20.528Z,9.17
2022-10-12T22:05:47.083Z,9.07
2022-10-12T22:08:13.712Z,9.03
2022-10-12T22:10:40.271Z,9.77
2022-10-12T22:13:09.347Z,8.60
2022-10-12T22:15:35.953Z,8.83
2022-10-12T22:18:12.248Z,8.67
2022-10-12T22:20:39.016Z,9.00
2022-10-12T22:23:05.605Z,9.37
2022-10-12T22:25:32.288Z,9.43
2022-10-12T22:27:58.817Z,8.90
2022-10-12T22:30:29.223Z,8.37
2022-10-12T22:32:55.862Z,8.60
2022-10-12T22:35:22.412Z,8.37
2022-10-12T22:37:49.880Z,8.30
2022-10-12T22:40:16.519Z,8.60
2022-10-12T22:42:43.135Z,8.63
2022-10-12T22:45:09.892Z,8.30
2022-10-12T22:47:41.324Z,8.17
2022-10-12T22:50:08.352Z,8.33
2022-10-12T22:52:34.937Z,9.33
2022-10-12T22:55:02.333Z,8.80
2022-10-12T22:57:30.107Z,8.83
2022-10-12T22:59:57.450Z,8.10
2022-10-12T23:02:23.979Z,9.13
2022-10-12T23:04:50.736Z,8.83
2022-10-12T23:07:17.319Z,8.83
2022-10-12T23:09:45.279Z,9.13
2022-10-12T23:12:11.792Z,9.07
2022-10-12T23:14:38.364Z,9.33
2022-10-12T23:17:04.931Z,9.67
2022-10-12T23:19:31.521Z,9.40
2022-10-12T23:22:00.981Z,8.87
2022-10-12T23:24:29.433Z,9.10
2022-10-12T23:26:57.366Z,9.33
2022-10-12T23:29:23.959Z,9.20
2022-10-12T23:31:51.271Z,8.90
2022-10-12T23:34:17.885Z,9.67
2022-10-12T23:36:44.828Z,9.20
2022-10-12T23:39:11.751Z,9.47
2022-10-12T23:41:38.275Z,9.67
2022-10-12T23:44:05.635Z,9.50
2022-10-12T23:46:32.204Z,9.50
2022-10-12T23:48:58.876Z,9.70
2022-10-12T23:51:25.506Z,8.87
2022-10-12T23:53:53.304Z,9.00
2022-10-12T23:56:19.866Z,9.63
2022-10-12T23:58:46.470Z,8.97
